Time;durP1;ratioP1;P1;durP2;ratioP2;P2;SDS_P1;SDS_P2;PMS_P1;PMS_P2;Temp;Humidity;BMP_temperature;BMP_pressure;BME280_temperature;BME280_humidity;BME280_pressure;Samples;Min_cycle;Max_cycle;Signal;HPM_P1;HPM_P2
2022/08/14 00:02:05;;;;;;;3.50;3.08;;;22.80;1.00;;;;;;4996637;28;20217;-61
2022/08/14 00:04:33;;;;;;;7.68;3.38;;;22.80;1.00;;;;;;5002248;28;20218;-61
2022/08/14 00:07:01;;;;;;;3.60;3.17;;;22.80;1.00;;;;;;5002296;28;20205;-61
2022/08/14 00:09:28;;;;;;;4.75;3.65;;;22.70;1.00;;;;;;4997076;28;20202;-61
2022/08/14 00:11:55;;;;;;;6.10;3.20;;;22.80;1.00;;;;;;4977200;28;20830;-61
2022/08/14 00:14:22;;;;;;;3.15;2.85;;;22.80;1.00;;;;;;5008715;28;20210;-61
2022/08/14 00:16:51;;;;;;;4.45;3.17;;;;;;;;;;4997591;28;20195;-61
2022/08/14 00:19:18;;;;;;;3.38;3.08;;;22.80;1.00;;;;;;5009292;28;20766;-61
2022/08/14 00:21:45;;;;;;;3.88;2.97;;;22.80;1.00;;;;;;5001028;28;20209;-61
2022/08/14 00:24:13;;;;;;;4.43;3.17;;;22.80;1.00;;;;;;5002088;28;20194;-61
2022/08/14 00:26:40;;;;;;;3.08;2.75;;;22.70;1.00;;;;;;4987527;28;20576;-61
2022/08/14 00:29:06;;;;;;;5.72;2.83;;;22.80;1.00;;;;;;4999807;28;20706;-61
2022/08/14 00:31:33;;;;;;;5.50;3.40;;;22.90;1.00;;;;;;5010006;28;20194;-61
2022/08/14 00:34:00;;;;;;;3.88;3.17;;;22.80;1.00;;;;;;5003575;28;20206;-61
2022/08/14 00:36:27;;;;;;;3.97;3.20;;;22.80;1.00;;;;;;5004400;28;20197;-61
2022/08/14 00:38:54;;;;;;;4.53;3.03;;;22.80;1.00;;;;;;5010036;28;20236;-61
2022/08/14 00:41:22;;;;;;;4.60;3.50;;;22.80;1.00;;;;;;4990355;28;21346;-61
2022/08/14 00:43:49;;;;;;;7.47;3.40;;;22.80;1.00;;;;;;5006138;28;20207;-61
2022/08/14 00:46:16;;;;;;;3.17;2.88;;;22.80;1.00;;;;;;5008869;28;20222;-61
2022/08/14 00:48:42;;;;;;;3.05;2.75;;;22.80;1.00;;;;;;5003305;28;20233;-61
2022/08/14 00:51:10;;;;;;;7.50;3.30;;;22.70;1.00;;;;;;5002251;28;20229;-61
2022/08/14 00:53:38;;;;;;;4.95;3.63;;;22.80;1.00;;;;;;5015317;28;20202;-61
2022/08/14 00:56:07;;;;;;;7.18;3.08;;;22.80;1.00;;;;;;4997639;28;20264;-61
2022/08/14 00:58:35;;;;;;;4.95;3.42;;;22.80;1.00;;;;;;5001827;28;20595;-61
2022/08/14 01:01:05;;;;;;;3.30;3.00;;;22.80;1.00;;;;;;5012477;28;20289;-61
2022/08/14 01:03:38;;;;;;;3.63;3.33;;;22.80;1.00;;;;;;5002428;28;20536;-61
2022/08/14 01:06:07;;;;;;;5.68;3.58;;;22.70;1.00;;;;;;4995370;28;20260;-61
2022/08/14 01:08:35;;;;;;;3.63;3.00;;;22.70;1.00;;;;;;5008749;28;20289;-61
2022/08/14 01:11:03;;;;;;;8.38;3.33;;;22.70;1.00;;;;;;5003162;28;20213;-61
2022/08/14 01:13:33;;;;;;;4.25;3.63;;;22.80;1.00;;;;;;4987258;28;20198;-61
2022/08/14 01:16:05;;;;;;;3.60;3.30;;;22.70;1.00;;;;;;5002583;28;20202;-61
2022/08/14 01:21:23;;;;;;;4.03;3.65;;;22.70;1.00;;;;;;5007883;28;20209;-61
2022/08/14 01:23:52;;;;;;;3.30;3.00;;;22.70;1.00;;;;;;5001754;28;20217;-61
2022/08/14 01:26:22;;;;;;;5.72;3.30;;;22.70;1.00;;;;;;5010337;28;20253;-61
2022/08/14 01:28:54;;;;;;;5.03;3.65;;;22.70;1.00;;;;;;4992178;28;20206;-61
2022/08/14 01:31:22;;;;;;;5.95;3.45;;;22.60;1.00;;;;;;5001279;28;20697;-61
2022/08/14 01:33:54;;;;;;;4.82;3.13;;;22.60;1.00;;;;;;5002788;28;20206;-61
2022/08/14 01:36:23;;;;;;;4.22;3.42;;;22.70;1.00;;;;;;5006327;28;20207;-61
2022/08/14 01:38:52;;;;;;;3.47;3.03;;;22.60;1.00;;;;;;5004552;28;20280;-61
2022/08/14 01:41:21;;;;;;;6.22;3.60;;;22.60;1.00;;;;;;5008981;28;20190;-61
2022/08/14 01:43:50;;;;;;;5.97;3.30;;;22.60;1.00;;;;;;5004307;28;20682;-61
2022/08/14 01:46:17;;;;;;;3.38;3.05;;;22.50;1.00;;;;;;4995871;28;20232;-61
2022/08/14 01:48:45;;;;;;;6.35;3.55;;;22.50;1.00;;;;;;5002024;28;20229;-60
2022/08/14 01:51:14;;;;;;;6.32;3.10;;;22.50;1.00;;;;;;5005529;28;21229;-61
2022/08/14 01:53:44;;;;;;;9.10;3.80;;;22.50;1.00;;;;;;5004767;28;20198;-61
2022/08/14 01:56:12;;;;;;;3.50;3.20;;;22.40;1.00;;;;;;5006419;28;20229;-61
2022/08/14 01:58:39;;;;;;;5.00;3.25;;;22.40;1.00;;;;;;5011698;28;20226;-61
2022/08/14 02:01:05;;;;;;;6.82;2.90;;;22.40;1.00;;;;;;4985000;28;20214;-61
2022/08/14 02:03:40;;;;;;;3.83;3.20;;;22.40;1.00;;;;;;5006351;28;20206;-61
2022/08/14 02:06:07;;;;;;;7.97;2.80;;;20.20;1.00;;;;;;5011559;28;20194;-61
2022/08/14 02:08:36;;;;;;;4.40;2.90;;;22.40;1.00;;;;;;4995283;28;20202;-61
2022/08/14 02:11:21;;;;;;;5.05;3.28;;;22.40;1.00;;;;;;5001258;28;20580;-61
2022/08/14 02:13:51;;;;;;;3.85;3.42;;;22.40;1.00;;;;;;4996601;28;20259;-61
2022/08/14 02:16:20;;;;;;;6.57;3.35;;;22.30;1.00;;;;;;4990258;28;20206;-60
2022/08/14 02:18:47;;;;;;;4.95;3.35;;;22.40;1.00;;;;;;5003097;28;20242;-61
2022/08/14 02:21:17;;;;;;;4.80;3.58;;;22.30;1.00;;;;;;5005120;28;20217;-61
2022/08/14 02:23:45;;;;;;;5.03;3.20;;;22.30;1.00;;;;;;5001944;28;20202;-61
2022/08/14 02:26:19;;;;;;;3.50;3.20;;;22.30;1.00;;;;;;4997608;28;20322;-61
2022/08/14 02:28:48;;;;;;;4.00;3.22;;;22.30;1.20;;;;;;5009631;28;20228;-61
2022/08/14 02:31:15;;;;;;;12.10;3.67;;;22.20;99.40;;;;;;4988298;28;20383;-62
2022/08/14 02:33:42;;;;;;;4.72;3.53;;;22.10;99.90;;;;;;5001589;28;20926;-61
2022/08/14 02:36:11;;;;;;;6.07;3.17;;;22.10;99.90;;;;;;4995962;28;20306;-61
2022/08/14 02:38:40;;;;;;;3.78;3.33;;;22.10;99.90;;;;;;5002728;28;20750;-61
2022/08/14 02:41:10;;;;;;;3.80;3.40;;;22.00;99.90;;;;;;4994393;28;20612;-61
2022/08/14 02:43:39;;;;;;;5.20;3.58;;;21.90;99.90;;;;;;5015018;28;20203;-61
2022/08/14 02:46:09;;;;;;;4.07;3.50;;;21.90;1.00;;;;;;4986451;28;20202;-61
2022/08/14 02:48:38;;;;;;;4.22;3.80;;;21.80;1.00;;;;;;5002316;28;20210;-61
2022/08/14 02:51:06;;;;;;;5.65;3.50;;;21.80;1.00;;;;;;4993493;28;20693;-61
2022/08/14 02:53:34;;;;;;;6.88;4.10;;;21.80;1.00;;;;;;5000381;28;20205;-61
2022/08/14 02:56:01;;;;;;;6.07;3.38;;;;;;;;;;5003974;28;20213;-61
2022/08/14 02:58:30;;;;;;;3.90;3.60;;;21.90;1.00;;;;;;5012164;28;20727;-61
2022/08/14 03:00:59;;;;;;;3.78;3.30;;;21.90;1.00;;;;;;5010899;28;20198;-61
2022/08/14 03:03:26;;;;;;;3.55;3.25;;;21.90;1.00;;;;;;4985246;28;20210;-61
2022/08/14 03:05:53;;;;;;;7.40;3.15;;;21.90;1.00;;;;;;5001364;28;20548;-62
2022/08/14 03:08:21;;;;;;;4.40;3.22;;;21.90;1.00;;;;;;5008142;28;20280;-61
2022/08/14 03:10:48;;;;;;;4.88;3.42;;;21.80;1.00;;;;;;5001483;28;20229;-62
2022/08/14 03:13:15;;;;;;;3.92;3.60;;;;;;;;;;5011673;28;20195;-61
2022/08/14 03:15:45;;;;;;;9.90;3.80;;;21.80;1.00;;;;;;5012288;28;20199;-61
2022/08/14 03:18:14;;;;;;;6.15;3.58;;;21.80;1.00;;;;;;4991251;28;20361;-61
2022/08/14 03:20:40;;;;;;;6.05;3.22;;;21.50;1.00;;;;;;5001834;28;20221;-61
2022/08/14 03:23:08;;;;;;;6.05;3.70;;;21.70;1.00;;;;;;5015057;28;20225;-61
2022/08/14 03:25:36;;;;;;;4.28;3.50;;;21.80;1.00;;;;;;4990996;28;20217;-62
2022/08/14 03:28:05;;;;;;;3.85;3.15;;;21.80;1.00;;;;;;5014848;28;20640;-61
2022/08/14 03:30:34;;;;;;;4.13;3.72;;;21.80;1.00;;;;;;5009718;28;20198;-61
2022/08/14 03:33:02;;;;;;;7.78;4.25;;;21.80;1.00;;;;;;4996320;28;20730;-62
2022/08/14 03:35:32;;;;;;;3.65;3.35;;;21.90;1.00;;;;;;5003290;28;20221;-61
2022/08/14 03:38:07;;;;;;;4.13;3.75;;;21.80;1.00;;;;;;5007264;28;20209;-61
2022/08/14 03:40:36;;;;;;;3.90;3.60;;;21.80;1.00;;;;;;4992993;28;20198;-62
2022/08/14 03:43:04;;;;;;;3.75;3.45;;;21.80;1.00;;;;;;5013976;28;20263;-61
2022/08/14 03:45:31;;;;;;;3.92;3.53;;;21.80;1.00;;;;;;5013006;28;20747;-61
2022/08/14 03:47:59;;;;;;;3.92;3.63;;;21.90;1.00;;;;;;5012168;28;20813;-61
2022/08/14 03:50:27;;;;;;;5.75;3.58;;;21.80;1.00;;;;;;4989695;28;20807;-61
2022/08/14 03:52:55;;;;;;;6.78;3.50;;;21.50;1.00;;;;;;5006053;28;20276;-61
2022/08/14 03:55:22;;;;;;;3.88;3.42;;;21.70;1.00;;;;;;5006384;28;20194;-61
2022/08/14 03:57:49;;;;;;;6.15;4.38;;;21.80;1.00;;;;;;5008845;28;20208;-61
2022/08/14 04:00:16;;;;;;;4.30;3.90;;;21.70;1.00;;;;;;5010349;28;20198;-61
2022/08/14 04:02:43;;;;;;;4.30;3.90;;;21.80;1.00;;;;;;5011763;28;20202;-61
2022/08/14 04:05:10;;;;;;;4.10;3.70;;;21.70;1.00;;;;;;4990954;28;20213;-61
2022/08/14 04:07:38;;;;;;;4.03;3.67;;;21.70;1.00;;;;;;5004457;28;20209;-61
2022/08/14 04:10:08;;;;;;;4.00;3.60;;;21.70;1.00;;;;;;5000399;28;20566;-61
2022/08/14 04:12:36;;;;;;;5.55;4.22;;;21.60;1.00;;;;;;5002546;28;20215;-61
2022/08/14 04:15:04;;;;;;;8.90;3.70;;;21.60;1.00;;;;;;5009690;28;20201;-62
2022/08/14 04:17:32;;;;;;;9.05;3.80;;;21.60;1.00;;;;;;5009401;28;20232;-61
2022/08/14 04:20:02;;;;;;;4.93;3.50;;;21.70;1.00;;;;;;4994952;28;20271;-62
2022/08/14 04:22:30;;;;;;;6.13;4.10;;;22.40;1.00;;;;;;5004285;28;20695;-61
2022/08/14 04:24:57;;;;;;;4.63;4.00;;;21.60;1.00;;;;;;5009840;28;20213;-61
2022/08/14 04:27:26;;;;;;;3.67;3.28;;;21.60;1.00;;;;;;5004755;28;20221;-61
2022/08/14 04:29:53;;;;;;;4.90;3.60;;;21.50;1.00;;;;;;5011304;28;20683;-61
2022/08/14 04:32:21;;;;;;;5.60;3.58;;;21.60;1.00;;;;;;5009193;28;20222;-61
2022/08/14 04:34:48;;;;;;;4.35;3.75;;;;;;;;;;5008743;28;21005;-61
2022/08/14 04:45:40;;;;;;;6.25;3.90;;;21.40;1.00;;;;;;5014469;28;20768;-62
2022/08/14 04:48:13;;;;;;;8.40;3.70;;;21.40;1.00;;;;;;5010153;28;20283;-61
2022/08/14 04:50:41;;;;;;;4.93;3.78;;;21.40;1.00;;;;;;5011653;28;20237;-61
2022/08/14 04:53:09;;;;;;;6.38;3.83;;;21.40;96.10;;;;;;4984601;28;20214;-62
2022/08/14 04:55:36;;;;;;;3.95;3.65;;;21.30;99.90;;;;;;5014138;28;20256;-62
2022/08/14 04:58:05;;;;;;;3.78;3.38;;;21.40;99.90;;;;;;5001745;28;20216;-61
2022/08/14 05:00:33;;;;;;;6.22;3.78;;;21.30;99.90;;;;;;4994578;28;20240;-62
2022/08/14 05:03:02;;;;;;;11.63;3.92;;;21.40;99.90;;;;;;5012423;28;20205;-61
2022/08/14 05:05:29;;;;;;;3.70;3.40;;;21.30;99.90;;;;;;4994798;28;20202;-62
2022/08/14 05:07:56;;;;;;;5.63;3.78;;;21.40;99.90;;;;;;4990109;28;20210;-63
2022/08/14 05:10:25;;;;;;;4.72;3.92;;;21.40;99.90;;;;;;4996862;28;20209;-63
2022/08/14 05:12:52;;;;;;;4.00;3.42;;;21.50;99.90;;;;;;5003525;28;20214;-61
2022/08/14 05:15:21;;;;;;;8.18;3.65;;;21.60;99.90;;;;;;5004623;28;20765;-63
2022/08/14 05:17:48;;;;;;;4.97;4.03;;;21.50;99.90;;;;;;5010396;28;20233;-63
2022/08/14 05:20:15;;;;;;;6.20;3.47;;;21.60;99.90;;;;;;5007044;28;20716;-63
2022/08/14 05:22:44;;;;;;;11.50;4.45;;;18.50;90.90;;;;;;4990430;28;20220;-61
2022/08/14 05:25:11;;;;;;;6.55;3.70;;;21.70;92.50;;;;;;5003622;28;20288;-61
2022/08/14 05:27:38;;;;;;;6.10;3.70;;;21.70;98.30;;;;;;5011738;28;20994;-61
2022/08/14 05:30:07;;;;;;;4.75;3.45;;;21.70;99.90;;;;;;5004373;28;20214;-61
2022/08/14 05:32:35;;;;;;;4.22;3.80;;;21.60;99.90;;;;;;5008263;28;20202;-61
2022/08/14 05:35:02;;;;;;;4.82;4.28;;;21.90;99.90;;;;;;5013108;28;20663;-61
2022/08/14 05:37:29;;;;;;;4.25;3.67;;;21.80;72.00;;;;;;4999254;28;20257;-61
2022/08/14 05:39:57;;;;;;;8.30;3.60;;;21.90;41.20;;;;;;4990147;28;20226;-61
2022/08/14 05:42:24;;;;;;;7.57;3.78;;;21.90;13.60;;;;;;4995786;28;20202;-61
2022/08/14 05:44:50;;;;;;;13.02;3.70;;;21.80;1.00;;;;;;5000007;28;20518;-63
2022/08/14 05:47:17;;;;;;;5.28;3.90;;;22.00;1.00;;;;;;5007102;28;20198;-63
2022/08/14 05:49:47;;;;;;;5.63;3.30;;;;;;;;;;5006644;28;20222;-61
2022/08/14 05:52:14;;;;;;;4.15;3.50;;;22.20;1.00;;;;;;5002247;28;20205;-62
2022/08/14 05:54:41;;;;;;;4.50;3.65;;;22.30;1.00;;;;;;4977516;28;20233;-62
2022/08/14 05:57:08;;;;;;;6.90;3.75;;;22.30;1.00;;;;;;5004686;28;20218;-61
2022/08/14 05:59:35;;;;;;;6.22;3.60;;;22.30;1.00;;;;;;5006985;28;21093;-62
2022/08/14 06:02:02;;;;;;;7.03;3.65;;;;;;;;;;4989066;28;20248;-63
2022/08/14 06:04:29;;;;;;;8.65;3.63;;;22.20;1.00;;;;;;5002592;28;20970;-62
2022/08/14 06:06:57;;;;;;;4.07;3.40;;;22.40;1.00;;;;;;5015424;28;20207;-62
2022/08/14 06:09:24;;;;;;;4.60;4.20;;;22.50;1.00;;;;;;4981988;28;20561;-63
2022/08/14 06:11:51;;;;;;;4.47;4.07;;;22.40;1.00;;;;;;4999460;28;20238;-63
2022/08/14 06:14:19;;;;;;;4.45;3.65;;;22.50;1.00;;;;;;5002801;28;20225;-62
2022/08/14 06:16:46;;;;;;;8.65;3.90;;;22.50;1.00;;;;;;4996823;28;20222;-62
2022/08/14 06:19:13;;;;;;;3.92;3.63;;;22.50;1.00;;;;;;5004436;28;20234;-62
2022/08/14 06:21:40;;;;;;;4.15;3.75;;;22.40;99.90;;;;;;5008983;28;20222;-62
2022/08/14 06:24:09;;;;;;;6.70;4.03;;;22.60;99.90;;;;;;4996551;28;20253;-63
2022/08/14 06:26:36;;;;;;;7.28;4.13;;;22.60;39.50;;;;;;4990835;28;20214;-63
2022/08/14 06:29:03;;;;;;;5.13;3.78;;;22.60;1.00;;;;;;5006774;28;20210;-62
2022/08/14 06:31:30;;;;;;;5.00;3.92;;;22.60;58.10;;;;;;5013265;28;20218;-63
2022/08/14 06:33:57;;;;;;;6.93;3.75;;;22.60;47.10;;;;;;5008788;28;20228;-62
2022/08/14 06:36:24;;;;;;;3.95;3.50;;;22.80;39.80;;;;;;5015324;28;20201;-62
2022/08/14 06:38:52;;;;;;;6.60;3.70;;;22.80;93.90;;;;;;5001682;28;20246;-62
2022/08/14 06:41:21;;;;;;;6.93;4.03;;;22.90;2.00;;;;;;4976552;28;20310;-63
2022/08/14 06:43:47;;;;;;;8.43;4.13;;;22.80;1.00;;;;;;5005681;28;20205;-63
2022/08/14 06:46:16;;;;;;;6.53;3.90;;;22.80;1.00;;;;;;4997115;28;20222;-63
2022/08/14 06:48:43;;;;;;;9.20;4.28;;;22.90;1.00;;;;;;5008886;28;20253;-62
2022/08/14 06:51:10;;;;;;;4.05;3.65;;;23.10;1.00;;;;;;5013988;28;20201;-62
2022/08/14 06:53:36;;;;;;;3.65;3.35;;;22.90;1.00;;;;;;5021359;28;20206;-63
2022/08/14 06:56:04;;;;;;;4.53;3.72;;;;;;;;;;4983180;28;20217;-63
2022/08/14 06:58:32;;;;;;;4.97;3.92;;;23.10;1.00;;;;;;5022621;28;20193;-63
2022/08/14 07:06:29;;;;;;;7.15;3.75;;;23.30;1.00;;;;;;5009390;28;20228;-61
2022/08/14 07:08:56;;;;;;;5.78;3.75;;;23.30;1.00;;;;;;5001176;28;20414;-60
2022/08/14 07:11:22;;;;;;;5.70;3.90;;;23.40;1.00;;;;;;4994349;28;20213;-60
2022/08/14 07:13:51;;;;;;;4.97;3.50;;;23.30;1.00;;;;;;4990116;28;21041;-60
2022/08/14 07:16:18;;;;;;;4.55;4.10;;;23.40;1.00;;;;;;4997854;28;20222;-61
2022/08/14 07:18:45;;;;;;;4.50;3.65;;;23.30;1.00;;;;;;5004294;28;20786;-61
2022/08/14 07:21:11;;;;;;;4.85;3.97;;;23.40;1.00;;;;;;4987999;28;20229;-61
2022/08/14 07:23:38;;;;;;;5.75;3.92;;;23.40;1.00;;;;;;4997102;28;20214;-61
2022/08/14 07:26:06;;;;;;;6.57;3.97;;;23.50;1.00;;;;;;4990646;28;23190;-61
2022/08/14 07:28:34;;;;;;;2.72;2.40;;;23.40;99.90;;;;;;4979791;28;20229;-61
2022/08/14 07:31:05;;;;;;;3.97;3.47;;;23.50;99.90;;;;;;5003811;28;20256;-61
2022/08/14 07:33:33;;;;;;;7.38;3.63;;;23.50;99.90;;;;;;4997198;28;20225;-61
2022/08/14 07:36:01;;;;;;;4.93;3.00;;;;;;;;;;4991905;28;20913;-61
2022/08/14 07:38:29;;;;;;;5.40;3.75;;;23.80;99.90;;;;;;5009464;28;20222;-61
2022/08/14 07:40:58;;;;;;;4.78;4.30;;;23.80;99.90;;;;;;5006543;28;20250;-61
2022/08/14 07:43:25;;;;;;;4.63;4.22;;;23.80;99.90;;;;;;4998327;28;20282;-62
2022/08/14 07:45:52;;;;;;;5.18;4.07;;;23.80;99.90;;;;;;4993045;28;20210;-61
2022/08/14 07:48:21;;;;;;;4.55;3.92;;;23.80;99.90;;;;;;5000214;28;20226;-61
2022/08/14 07:50:49;;;;;;;6.70;3.72;;;23.80;99.90;;;;;;5005422;28;20213;-61
2022/08/14 07:53:16;;;;;;;4.97;4.53;;;22.70;99.90;;;;;;5008914;28;20225;-61
2022/08/14 07:55:45;;;;;;;5.18;4.18;;;23.90;99.90;;;;;;5009467;28;20201;-61
2022/08/14 07:58:12;;;;;;;5.30;4.55;;;24.00;99.90;;;;;;4997178;28;20206;-61
2022/08/14 08:00:39;;;;;;;6.07;4.40;;;24.10;99.90;;;;;;4994695;28;20730;-61
2022/08/14 08:03:08;;;;;;;5.50;3.83;;;24.10;99.90;;;;;;5009147;28;21234;-61
2022/08/14 08:05:40;;;;;;;5.88;4.53;;;24.20;99.90;;;;;;5004324;28;20208;-61
2022/08/14 08:08:07;;;;;;;5.13;4.63;;;24.20;99.90;;;;;;5000716;28;20229;-61
2022/08/14 08:10:37;;;;;;;4.53;4.13;;;24.20;99.90;;;;;;5009655;28;20556;-61
2022/08/14 08:13:06;;;;;;;6.25;4.40;;;24.30;99.90;;;;;;4988214;28;20221;-62
2022/08/14 08:15:36;;;;;;;7.65;4.82;;;24.30;99.90;;;;;;4992636;28;20214;-61
2022/08/14 08:18:04;;;;;;;7.50;4.55;;;24.30;52.80;;;;;;5013444;28;20233;-61
2022/08/14 08:20:33;;;;;;;6.75;5.00;;;24.40;94.70;;;;;;5006590;28;20231;-61
2022/08/14 08:23:03;;;;;;;4.95;4.50;;;24.40;93.80;;;;;;5002549;28;20222;-61
2022/08/14 08:25:32;;;;;;;4.75;4.35;;;24.40;72.00;;;;;;5009936;28;20245;-61
2022/08/14 08:28:00;;;;;;;4.65;4.25;;;24.50;82.50;;;;;;4994203;28;20225;-61
2022/08/14 08:30:29;;;;;;;5.57;4.53;;;24.50;62.70;;;;;;5001219;28;20208;-62
2022/08/14 08:32:57;;;;;;;5.45;4.95;;;24.60;47.80;;;;;;4980082;28;20221;-62
2022/08/14 08:35:27;;;;;;;5.22;4.72;;;24.50;36.70;;;;;;5004627;28;20231;-62
2022/08/14 08:38:00;;;;;;;9.32;4.93;;;24.50;64.80;;;;;;5007259;28;20206;-61
2022/08/14 08:40:34;;;;;;;5.53;4.90;;;24.70;59.50;;;;;;5016056;28;20240;-62
2022/08/14 08:43:01;;;;;;;5.13;4.63;;;24.80;60.30;;;;;;5007764;28;20198;-63
2022/08/14 08:45:28;;;;;;;5.72;5.05;;;24.90;27.90;;;;;;4999953;28;20222;-62
2022/08/14 08:47:55;;;;;;;7.57;4.72;;;25.00;8.90;;;;;;4988689;28;20662;-62
2022/08/14 08:50:26;;;;;;;5.13;4.63;;;25.20;1.00;;;;;;4994769;28;20222;-62
2022/08/14 08:52:54;;;;;;;5.45;4.90;;;24.90;1.00;;;;;;5000590;28;20660;-62
2022/08/14 08:55:31;;;;;;;9.40;5.82;;;25.10;1.00;;;;;;5015662;28;20674;-62
2022/08/14 08:57:59;;;;;;;8.10;5.00;;;25.00;1.00;;;;;;4999967;28;20206;-62
2022/08/14 09:00:32;;;;;;;5.28;4.72;;;25.20;1.00;;;;;;5006473;28;20597;-63
2022/08/14 09:03:03;;;;;;;7.28;5.07;;;25.20;1.00;;;;;;4991277;28;20733;-62
2022/08/14 09:05:31;;;;;;;5.88;5.18;;;25.30;1.00;;;;;;5004297;28;20358;-63
2022/08/14 09:08:12;;;;;;;7.93;5.55;;;25.30;1.00;;;;;;4992144;28;20202;-62
2022/08/14 09:10:41;;;;;;;6.18;5.30;;;25.30;1.00;;;;;;5008588;28;20502;-61
2022/08/14 09:13:11;;;;;;;5.75;5.25;;;25.40;1.00;;;;;;4986835;28;20419;-63
2022/08/14 09:15:39;;;;;;;7.00;5.75;;;25.40;1.00;;;;;;5003773;28;20225;-62
2022/08/14 09:18:07;;;;;;;6.70;5.80;;;26.00;1.00;;;;;;4978473;28;20253;-63
2022/08/14 09:20:35;;;;;;;7.80;5.68;;;25.60;1.00;;;;;;5006563;28;20234;-63
2022/08/14 09:23:03;;;;;;;6.10;5.50;;;25.60;1.00;;;;;;4984301;28;20206;-63
2022/08/14 09:25:29;;;;;;;8.02;5.18;;;25.70;1.00;;;;;;5017504;28;20194;-62
2022/08/14 09:27:58;;;;;;;9.55;5.85;;;25.70;1.00;;;;;;5001139;28;20692;-63
2022/08/14 09:30:25;;;;;;;10.00;5.90;;;25.80;1.00;;;;;;5011961;28;20218;-62
2022/08/14 09:33:05;;;;;;;7.50;5.65;;;25.90;1.00;;;;;;4999501;28;20225;-62
2022/08/14 09:35:42;;;;;;;8.40;5.22;;;25.90;1.00;;;;;;4997840;28;20225;-62
2022/08/14 09:38:21;;;;;;;6.68;5.53;;;25.90;1.00;;;;;;5000596;28;20236;-62
2022/08/14 09:40:59;;;;;;;10.48;5.97;;;26.00;1.00;;;;;;5000776;28;20280;-62
2022/08/14 09:43:31;;;;;;;8.70;5.70;;;26.10;1.00;;;;;;4996701;28;20787;-63
2022/08/14 09:45:59;;;;;;;6.93;5.68;;;26.00;1.00;;;;;;4982839;28;20209;-63
2022/08/14 09:48:27;;;;;;;6.53;5.80;;;26.10;1.00;;;;;;4996677;28;20319;-62
2022/08/14 09:50:55;;;;;;;5.72;4.70;;;26.20;1.00;;;;;;4980509;28;20245;-63
2022/08/14 09:53:35;;;;;;;7.45;5.90;;;26.20;1.00;;;;;;4985921;28;20884;-62
2022/08/14 09:56:03;;;;;;;6.35;5.35;;;26.30;1.00;;;;;;4994091;28;20210;-62
2022/08/14 09:58:38;;;;;;;5.97;5.38;;;26.40;1.00;;;;;;4996607;28;20218;-63
2022/08/14 10:01:11;;;;;;;8.02;5.72;;;26.30;1.00;;;;;;5005948;28;20228;-62
2022/08/14 10:03:48;;;;;;;8.88;5.82;;;26.30;1.00;;;;;;4999091;28;20205;-63
2022/08/14 10:06:17;;;;;;;5.95;5.32;;;26.40;1.00;;;;;;4988826;28;20375;-62
2022/08/14 10:08:47;;;;;;;5.85;5.07;;;26.40;1.00;;;;;;4990602;28;20668;-62
2022/08/14 10:11:20;;;;;;;7.50;5.43;;;26.50;1.00;;;;;;4998130;28;20728;-63
2022/08/14 10:13:53;;;;;;;9.43;5.35;;;26.50;1.00;;;;;;4995152;28;20206;-63
2022/08/14 10:16:22;;;;;;;6.00;5.40;;;26.50;99.90;;;;;;5004774;28;20257;-63
2022/08/14 10:18:50;;;;;;;8.65;5.22;;;26.20;1.00;;;;;;4992727;28;20245;-62
2022/08/14 10:21:18;;;;;;;6.25;5.43;;;26.70;99.90;;;;;;4991477;28;20357;-63
2022/08/14 10:23:51;;;;;;;6.40;5.20;;;26.90;99.90;;;;;;4995835;28;20206;-62
2022/08/14 10:26:20;;;;;;;5.53;4.95;;;26.80;99.90;;;;;;4995896;28;20212;-63
2022/08/14 10:28:50;;;;;;;6.65;5.88;;;26.80;99.90;;;;;;5009385;28;20832;-62
2022/08/14 10:31:22;;;;;;;5.85;5.35;;;26.80;99.90;;;;;;4994246;28;20223;-63
2022/08/14 10:34:00;;;;;;;10.05;5.47;;;26.80;99.90;;;;;;4993718;28;20230;-62
2022/08/14 10:36:31;;;;;;;5.95;5.35;;;26.80;99.90;;;;;;5010880;28;20218;-62
2022/08/14 10:38:59;;;;;;;7.60;5.57;;;26.90;99.90;;;;;;4962918;28;20384;-62
2022/08/14 10:41:39;;;;;;;9.18;5.68;;;26.90;99.90;;;;;;5008326;28;20239;-61
2022/08/14 10:44:11;;;;;;;7.40;5.35;;;26.90;99.90;;;;;;4986697;28;20315;-62
2022/08/14 10:46:46;;;;;;;7.43;5.65;;;27.10;99.90;;;;;;4982273;28;20202;-62
2022/08/14 10:49:22;;;;;;;6.45;5.85;;;27.10;99.90;;;;;;4984099;28;20669;-62
2022/08/14 10:52:04;;;;;;;9.82;5.20;;;27.10;99.90;;;;;;4979211;28;20793;-62
2022/08/14 10:54:37;;;;;;;8.48;5.75;;;27.10;99.90;;;;;;4997173;28;20299;-62
2022/08/14 10:57:12;;;;;;;5.53;5.03;;;27.10;99.90;;;;;;4982294;28;21514;-62
2022/08/14 10:59:44;;;;;;;7.18;5.28;;;27.20;99.90;;;;;;4994375;28;20218;-62
2022/08/14 11:02:28;;;;;;;8.18;5.20;;;27.20;99.90;;;;;;4987942;28;20644;-61
2022/08/14 11:05:03;;;;;;;6.60;5.72;;;27.40;99.90;;;;;;4987172;28;20821;-62
2022/08/14 11:07:31;;;;;;;6.05;5.10;;;27.40;99.90;;;;;;5001421;28;20224;-62
2022/08/14 11:10:00;;;;;;;6.65;5.35;;;27.40;99.90;;;;;;4980891;28;20232;-62
2022/08/14 11:12:38;;;;;;;6.25;5.10;;;27.40;99.90;;;;;;4998959;28;20232;-62
2022/08/14 11:15:07;;;;;;;7.80;5.28;;;27.40;99.90;;;;;;4979605;28;20233;-62
2022/08/14 11:17:35;;;;;;;7.13;5.18;;;27.60;99.90;;;;;;4993344;28;20237;-62
2022/08/14 11:20:05;;;;;;;5.57;5.03;;;27.50;99.90;;;;;;4999615;28;20209;-62
2022/08/14 11:22:32;;;;;;;9.35;5.03;;;27.70;99.90;;;;;;5001463;28;20229;-62
2022/08/14 11:25:06;;;;;;;7.35;5.53;;;27.70;99.90;;;;;;4981896;28;20252;-62
2022/08/14 11:27:34;;;;;;;6.43;5.40;;;27.90;99.90;;;;;;4984502;28;20222;-62
2022/08/14 11:30:05;;;;;;;5.72;5.13;;;27.90;99.90;;;;;;4973306;28;20233;-62
2022/08/14 11:32:35;;;;;;;9.82;5.38;;;28.00;99.90;;;;;;5000640;28;20230;-62
2022/08/14 11:35:03;;;;;;;6.95;5.15;;;27.70;99.90;;;;;;4993637;28;20308;-62
2022/08/14 11:37:32;;;;;;;5.22;4.35;;;27.70;99.90;;;;;;4996564;28;20258;-62
2022/08/14 11:40:00;;;;;;;7.03;4.75;;;27.80;97.80;;;;;;4977796;28;21345;-62
2022/08/14 11:42:29;;;;;;;5.80;5.25;;;27.80;99.90;;;;;;4985656;28;20222;-62
2022/08/14 11:44:58;;;;;;;5.63;4.38;;;27.80;99.90;;;;;;4994973;28;20214;-62
2022/08/14 11:47:25;;;;;;;7.63;5.53;;;27.80;84.40;;;;;;4986779;28;20476;-62
2022/08/14 11:49:54;;;;;;;6.00;5.38;;;27.80;68.80;;;;;;4993412;28;20240;-62
2022/08/14 11:52:21;;;;;;;6.05;4.93;;;;;;;;;;4979624;28;20226;-62
2022/08/14 11:54:57;;;;;;;6.85;4.40;;;27.80;58.00;;;;;;4970985;28;21139;-62
2022/08/14 11:57:24;;;;;;;7.47;5.10;;;27.90;54.70;;;;;;4991149;28;20236;-62
2022/08/14 12:00:01;;;;;;;5.40;4.90;;;27.80;66.50;;;;;;4992934;28;20416;-62
2022/08/14 12:02:30;;;;;;;7.95;5.00;;;27.90;77.20;;;;;;4994201;28;20237;-62
2022/08/14 12:04:58;;;;;;;6.65;4.80;;;28.00;37.00;;;;;;4995712;28;20209;-62
2022/08/14 12:07:26;;;;;;;9.60;4.57;;;27.90;43.10;;;;;;4981541;28;20609;-62
2022/08/14 12:09:55;;;;;;;5.18;4.78;;;27.90;54.50;;;;;;5001793;28;20414;-62
2022/08/14 12:12:24;;;;;;;10.43;5.35;;;27.90;76.30;;;;;;4964605;28;20400;-62
2022/08/14 12:14:55;;;;;;;5.10;4.55;;;28.00;48.10;;;;;;4993238;28;20218;-62
2022/08/14 12:17:22;;;;;;;8.15;4.72;;;28.00;99.90;;;;;;4984454;28;20290;-62
2022/08/14 12:19:52;;;;;;;6.32;4.78;;;28.00;34.90;;;;;;4991770;28;20288;-62
2022/08/14 12:22:33;;;;;;;6.25;4.75;;;28.10;16.20;;;;;;4990539;28;20222;-62
2022/08/14 12:25:00;;;;;;;6.20;4.57;;;28.10;32.70;;;;;;5006404;28;20217;-62
2022/08/14 12:27:43;;;;;;;7.72;4.70;;;28.20;19.20;;;;;;4963534;28;21042;-62
2022/08/14 12:30:13;;;;;;;5.45;4.95;;;28.10;28.80;;;;;;4996713;28;20253;-62
2022/08/14 12:32:42;;;;;;;5.18;4.60;;;28.20;10.60;;;;;;4997329;28;20561;-62
2022/08/14 12:35:09;;;;;;;5.20;4.70;;;28.20;10.90;;;;;;4978371;28;20241;-62
2022/08/14 12:37:38;;;;;;;5.25;4.75;;;28.20;2.20;;;;;;4994423;28;20233;-62
2022/08/14 12:40:10;;;;;;;7.18;5.53;;;28.20;9.00;;;;;;4999909;28;20291;-62
2022/08/14 12:42:37;;;;;;;9.90;4.68;;;28.20;1.00;;;;;;4989243;28;20229;-62
2022/08/14 12:45:06;;;;;;;5.10;4.60;;;28.40;1.00;;;;;;4988840;28;20206;-62
2022/08/14 12:47:33;;;;;;;4.95;4.50;;;28.40;1.00;;;;;;4999462;28;22639;-62
2022/08/14 12:50:01;;;;;;;5.15;4.38;;;28.50;1.00;;;;;;4999383;28;20202;-62
2022/08/14 12:52:30;;;;;;;8.63;5.35;;;28.40;1.00;;;;;;4998512;28;20233;-62
2022/08/14 12:54:59;;;;;;;6.25;5.28;;;28.40;1.00;;;;;;4996830;28;20224;-62
2022/08/14 12:57:35;;;;;;;5.40;4.90;;;28.20;1.00;;;;;;4976577;28;20950;-62
2022/08/14 13:00:16;;;;;;;5.97;4.90;;;27.70;1.00;;;;;;4997400;28;20248;-62
2022/08/14 13:02:44;;;;;;;5.30;4.82;;;28.00;1.00;;;;;;4997083;28;20348;-62
2022/08/14 13:05:13;;;;;;;6.13;5.20;;;28.00;21.90;;;;;;5001923;28;20206;-62
2022/08/14 13:07:41;;;;;;;10.23;5.03;;;28.10;1.00;;;;;;4996384;28;21474;-62
2022/08/14 13:10:13;;;;;;;7.18;5.50;;;28.20;1.00;;;;;;4992624;28;20697;-62
2022/08/14 13:12:41;;;;;;;7.53;4.35;;;28.50;1.00;;;;;;4971677;28;20209;-62
2022/08/14 13:15:10;;;;;;;5.65;4.45;;;28.50;1.00;;;;;;4991502;28;20666;-63
2022/08/14 13:17:41;;;;;;;5.65;5.10;;;28.70;1.00;;;;;;4993557;28;20239;-62
2022/08/14 13:20:10;;;;;;;6.03;4.70;;;28.70;1.00;;;;;;5012607;28;20208;-61
2022/08/14 13:22:41;;;;;;;6.40;4.88;;;28.70;1.00;;;;;;4987833;28;20234;-61